Severinia, Brazil
Current Conditions -  °F | °C
As of 10:00 PM on Tuesday 25 Nov 2014 (Local Time) from SBSR Reporting Station
Light Rain Light Rain  
Wind Chill: 72°   Ceiling: 2000
Heat Index: 72°   Visibility: 2.5mi
Dew Point: 70°   Wind: 2mph
Humidity: 94%   Direction: 330°NNW
Pressure: 29.88"   Gusts: NA
Location:  20.81°S, 48.8°W
Report Text: SBSR 260000Z 33002KT 4000 -RA BR SCT005 BKN020 OVC070 22/21 Q1012 RERA
Loading
Personal Weather Stations






























Interactive Weather Map New forecast layout! Learn more

10-Day Weather Forecast

Advertisements
Track Severe Weather on mobile